Time;durP1;ratioP1;P1;durP2;ratioP2;P2;SDS_P1;SDS_P2;PMS_P1;PMS_P2;Temp;Humidity;BMP_temperature;BMP_pressure;BME280_temperature;BME280_humidity;BME280_pressure;Samples;Min_cycle;Max_cycle;Signal;HPM_P1;HPM_P2
2023/04/30 00:01:48;;;;;;;8.40;3.20;;;10.40;99.90;;;;;;5044313;28;20497;-57
2023/04/30 00:04:17;;;;;;;7.33;2.40;;;10.30;99.90;;;;;;5040767;28;20537;-58
2023/04/30 00:06:43;;;;;;;2.20;1.80;;;10.30;99.90;;;;;;5041076;28;20460;-58
2023/04/30 00:09:11;;;;;;;4.33;1.50;;;10.30;99.90;;;;;;5040114;28;20468;-58
2023/04/30 00:11:38;;;;;;;2.73;1.87;;;10.30;99.90;;;;;;5040792;28;20494;-58
2023/04/30 00:14:05;;;;;;;3.63;1.70;;;10.20;99.90;;;;;;5040247;28;20785;-56
2023/04/30 00:16:32;;;;;;;2.70;1.67;;;10.20;99.90;;;;;;5040888;28;20455;-59
2023/04/30 00:18:59;;;;;;;6.87;1.60;;;10.10;99.90;;;;;;5041043;28;20872;-58
2023/04/30 00:21:27;;;;;;;6.60;1.60;;;10.10;99.90;;;;;;5040578;28;20980;-56
2023/04/30 00:23:54;;;;;;;2.77;1.60;;;10.00;99.90;;;;;;5040736;28;20440;-56
2023/04/30 00:26:21;;;;;;;4.30;2.40;;;10.00;99.90;;;;;;5040635;28;20499;-58
2023/04/30 00:28:48;;;;;;;3.67;1.47;;;10.00;99.90;;;;;;5040709;28;20531;-59
2023/04/30 00:31:17;;;;;;;2.10;1.60;;;10.00;99.90;;;;;;5040909;28;21023;-58
2023/04/30 00:33:44;;;;;;;4.53;1.53;;;10.00;99.90;;;;;;5040829;28;20860;-58
2023/04/30 00:36:11;;;;;;;4.07;1.40;;;10.00;99.90;;;;;;5040561;28;20514;-58
2023/04/30 00:38:40;;;;;;;6.07;1.40;;;10.00;99.90;;;;;;5040773;28;20520;-56
2023/04/30 00:41:07;;;;;;;4.77;1.27;;;9.90;99.90;;;;;;5041005;28;20443;-56
2023/04/30 00:43:34;;;;;;;3.70;1.87;;;9.90;99.90;;;;;;5043075;28;20470;-58
2023/04/30 00:46:02;;;;;;;4.07;1.57;;;9.90;99.90;;;;;;5043067;28;20464;-58
2023/04/30 00:48:29;;;;;;;6.30;1.77;;;9.90;99.90;;;;;;5043257;28;20486;-56
2023/04/30 00:50:56;;;;;;;3.13;1.27;;;9.80;99.90;;;;;;5043781;28;20467;-55
2023/04/30 00:53:23;;;;;;;4.80;1.57;;;9.70;99.90;;;;;;5043619;28;20587;-57
2023/04/30 00:55:52;;;;;;;10.20;1.83;;;9.70;99.90;;;;;;5044192;28;20483;-59
2023/04/30 00:58:20;;;;;;;4.23;1.63;;;9.70;99.90;;;;;;5044028;28;20908;-59
2023/04/30 01:00:47;;;;;;;2.70;1.87;;;9.60;99.90;;;;;;5042970;28;20881;-59
2023/04/30 01:03:14;;;;;;;4.53;2.00;;;9.60;99.90;;;;;;5042195;28;20531;-57
2023/04/30 01:05:41;;;;;;;6.90;2.23;;;9.60;99.90;;;;;;5043622;28;20510;-57
2023/04/30 01:08:10;;;;;;;3.23;2.10;;;9.60;99.90;;;;;;5043684;28;20523;-57
2023/04/30 01:10:44;;;;;;;8.87;2.10;;;9.50;99.90;;;;;;5044787;28;20980;-58
2023/04/30 01:13:22;;;;;;;8.60;1.97;;;9.40;99.90;;;;;;5046109;28;20554;-57
2023/04/30 01:15:59;;;;;;;8.03;1.67;;;9.40;99.90;;;;;;5049974;28;20467;-57
2023/04/30 01:18:31;;;;;;;6.03;1.50;;;9.30;99.90;;;;;;5053981;28;20456;-57
2023/04/30 01:21:06;;;;;;;3.00;1.80;;;9.30;99.90;;;;;;5050433;28;21008;-56
2023/04/30 01:23:53;;;;;;;3.10;1.73;;;9.30;99.90;;;;;;5045125;28;20428;-57
2023/04/30 01:26:31;;;;;;;4.60;2.03;;;9.20;99.90;;;;;;5045296;28;20502;-57
2023/04/30 01:29:00;;;;;;;6.20;1.63;;;9.20;99.90;;;;;;5044760;28;20523;-57
2023/04/30 01:31:28;;;;;;;5.20;1.60;;;9.20;99.90;;;;;;5043441;28;20917;-58
2023/04/30 01:33:55;;;;;;;3.90;1.90;;;9.20;99.90;;;;;;5042526;28;20490;-59
2023/04/30 01:36:36;;;;;;;3.50;1.70;;;9.20;99.90;;;;;;5043674;28;20480;-59
2023/04/30 01:39:15;;;;;;;8.83;1.53;;;9.20;99.90;;;;;;5042821;28;20550;-57
2023/04/30 01:41:52;;;;;;;6.43;1.70;;;9.10;99.90;;;;;;5041419;28;20511;-59
2023/04/30 01:44:34;;;;;;;7.80;2.03;;;9.10;99.90;;;;;;5040160;28;20850;-57
2023/04/30 01:47:07;;;;;;;10.87;1.70;;;9.10;99.90;;;;;;5040492;28;20844;-58
2023/04/30 01:49:47;;;;;;;2.67;1.90;;;9.10;99.90;;;;;;5040447;28;20507;-57
2023/04/30 01:52:20;;;;;;;5.53;1.53;;;9.00;99.90;;;;;;5040762;28;20479;-57
2023/04/30 01:54:53;;;;;;;9.70;2.10;;;9.00;99.90;;;;;;5040003;28;20999;-57
2023/04/30 01:57:28;;;;;;;7.23;1.80;;;9.00;99.90;;;;;;5039832;28;20602;-57
2023/04/30 01:59:56;;;;;;;2.47;1.67;;;8.90;99.90;;;;;;5040276;28;20477;-57
2023/04/30 02:02:23;;;;;;;4.10;1.70;;;8.90;99.90;;;;;;5040220;28;20431;-55
2023/04/30 02:04:50;;;;;;;4.20;1.90;;;8.90;99.90;;;;;;5040165;28;20600;-60
2023/04/30 02:07:27;;;;;;;5.87;1.83;;;8.80;99.90;;;;;;5040039;28;20495;-57
2023/04/30 02:09:54;;;;;;;3.03;1.63;;;8.70;99.90;;;;;;5040097;28;20524;-58
2023/04/30 02:15:10;;;;;;;3.57;1.97;;;8.80;99.90;;;;;;5038894;28;20428;-57
2023/04/30 02:17:37;;;;;;;3.43;1.40;;;8.70;99.90;;;;;;5039543;28;20496;-56
2023/04/30 02:20:04;;;;;;;8.73;1.83;;;8.70;99.90;;;;;;5039739;28;20503;-58
2023/04/30 02:22:31;;;;;;;6.73;1.60;;;8.70;99.90;;;;;;5039568;28;20525;-59
2023/04/30 02:24:58;;;;;;;2.87;2.00;;;8.60;99.90;;;;;;5040010;28;20450;-58
2023/04/30 02:27:26;;;;;;;5.50;2.73;;;8.60;99.90;;;;;;5040004;28;20489;-59
2023/04/30 02:29:53;;;;;;;12.40;2.33;;;8.50;99.90;;;;;;5043439;28;20505;-57
2023/04/30 02:32:22;;;;;;;2.50;2.17;;;8.50;99.90;;;;;;5042888;28;20555;-58
2023/04/30 02:34:49;;;;;;;2.63;1.87;;;8.50;99.90;;;;;;5038678;28;20559;-58
2023/04/30 02:37:16;;;;;;;16.93;2.00;;;8.50;99.90;;;;;;5039481;28;20523;-56
2023/04/30 02:39:43;;;;;;;7.40;2.07;;;8.50;99.90;;;;;;5040859;28;20551;-59
2023/04/30 02:42:11;;;;;;;5.30;1.83;;;8.50;99.90;;;;;;5043840;28;20527;-56
2023/04/30 02:44:38;;;;;;;5.40;2.57;;;8.50;99.90;;;;;;5041189;28;21094;-58
2023/04/30 02:47:04;;;;;;;9.23;2.77;;;8.50;99.90;;;;;;5041616;28;20443;-59
2023/04/30 02:49:33;;;;;;;7.83;3.60;;;8.40;99.90;;;;;;5043246;28;20448;-57
2023/04/30 02:52:00;;;;;;;5.70;2.10;;;8.40;99.90;;;;;;5041229;28;20594;-58
2023/04/30 02:54:27;;;;;;;9.13;2.30;;;8.30;99.90;;;;;;5041180;28;20444;-57
2023/04/30 02:56:54;;;;;;;2.77;2.10;;;8.40;99.90;;;;;;5041245;28;20471;-59
2023/04/30 02:59:20;;;;;;;4.43;2.23;;;8.40;99.90;;;;;;5042017;28;20482;-59
2023/04/30 03:01:47;;;;;;;2.97;1.30;;;8.30;99.90;;;;;;5041568;28;20500;-57
2023/04/30 03:04:14;;;;;;;3.27;2.10;;;8.30;99.90;;;;;;5041286;28;20444;-58
2023/04/30 03:06:42;;;;;;;3.50;1.97;;;8.20;99.90;;;;;;5040946;28;20590;-58
2023/04/30 03:09:09;;;;;;;4.20;1.90;;;8.20;99.90;;;;;;5040525;28;20508;-58
2023/04/30 03:11:36;;;;;;;6.43;2.33;;;8.10;99.90;;;;;;5041140;28;20444;-58
2023/04/30 03:16:44;;;;;;;10.53;2.33;;;8.00;99.90;;;;;;5033458;28;20468;-57
2023/04/30 03:19:11;;;;;;;9.80;3.00;;;8.00;99.90;;;;;;5043257;28;20468;-58
2023/04/30 03:21:39;;;;;;;3.50;2.97;;;8.00;99.90;;;;;;5039287;28;20458;-58
2023/04/30 03:24:08;;;;;;;3.90;2.17;;;8.00;99.90;;;;;;5038424;28;20460;-54
2023/04/30 03:26:35;;;;;;;3.83;1.87;;;7.90;99.90;;;;;;5038269;28;20925;-57
2023/04/30 03:29:02;;;;;;;9.40;1.90;;;7.90;99.90;;;;;;5038382;28;20440;-58
2023/04/30 03:31:28;;;;;;;3.33;1.90;;;7.90;99.90;;;;;;5038119;28;20483;-58
2023/04/30 03:33:55;;;;;;;3.30;2.03;;;7.80;99.90;;;;;;5038145;28;20979;-56
2023/04/30 03:36:26;;;;;;;11.37;2.70;;;7.80;99.90;;;;;;5038711;28;20483;-58
2023/04/30 03:38:53;;;;;;;4.93;1.93;;;7.80;99.90;;;;;;5038319;28;20436;-52
2023/04/30 03:41:23;;;;;;;9.60;2.80;;;7.80;99.90;;;;;;5038492;28;20471;-56
2023/04/30 03:43:49;;;;;;;6.40;2.33;;;7.80;99.90;;;;;;5038207;28;20448;-58
2023/04/30 03:46:17;;;;;;;2.03;1.47;;;7.70;99.90;;;;;;5038446;28;20551;-58
2023/04/30 03:48:47;;;;;;;4.07;1.70;;;7.60;99.90;;;;;;5038994;28;20490;-58
2023/04/30 03:51:14;;;;;;;5.80;2.50;;;7.60;99.90;;;;;;5038427;28;20498;-58
2023/04/30 03:53:41;;;;;;;4.27;2.70;;;7.60;99.90;;;;;;5038941;28;20580;-56
2023/04/30 03:56:13;;;;;;;3.50;1.90;;;7.50;99.90;;;;;;5038585;28;20492;-58
2023/04/30 03:58:41;;;;;;;3.43;2.07;;;7.50;99.90;;;;;;5038099;28;20435;-58
2023/04/30 04:01:09;;;;;;;4.23;2.10;;;7.50;99.90;;;;;;5038479;28;20479;-57
2023/04/30 04:03:39;;;;;;;5.80;3.17;;;7.50;99.90;;;;;;5038427;28;20468;-57
2023/04/30 04:06:11;;;;;;;3.93;2.50;;;7.50;99.90;;;;;;5038863;28;20452;-58
2023/04/30 04:08:38;;;;;;;9.37;2.50;;;7.50;99.90;;;;;;5049601;28;20495;-56
2023/04/30 04:11:08;;;;;;;5.13;2.67;;;7.50;99.90;;;;;;5053344;28;20444;-53
2023/04/30 04:13:35;;;;;;;7.10;2.30;;;7.50;99.90;;;;;;5054205;28;20507;-58
2023/04/30 04:16:04;;;;;;;11.20;2.03;;;7.50;99.90;;;;;;5054400;28;20424;-57
2023/04/30 04:18:30;;;;;;;14.03;2.60;;;7.50;99.90;;;;;;5055230;28;20459;-57
2023/04/30 04:21:01;;;;;;;7.73;2.47;;;7.50;99.90;;;;;;5047559;28;20468;-58
2023/04/30 04:23:31;;;;;;;3.93;2.20;;;7.40;99.90;;;;;;5044290;28;20451;-57
2023/04/30 04:25:59;;;;;;;8.30;2.73;;;7.50;99.90;;;;;;5040951;28;20499;-57
2023/04/30 04:28:26;;;;;;;7.23;3.17;;;7.40;99.90;;;;;;5038520;28;20448;-57
2023/04/30 04:30:59;;;;;;;6.57;2.23;;;7.40;99.90;;;;;;5037591;28;20478;-58
2023/04/30 04:33:27;;;;;;;11.13;2.83;;;7.40;99.90;;;;;;5038607;28;20797;-58
2023/04/30 04:35:56;;;;;;;5.87;2.90;;;7.40;99.90;;;;;;5038234;28;20448;-57
2023/04/30 04:38:24;;;;;;;3.67;2.10;;;7.40;99.90;;;;;;5041958;28;20506;-56
2023/04/30 04:40:54;;;;;;;4.63;2.20;;;7.30;99.90;;;;;;5042181;28;20444;-59
2023/04/30 04:43:21;;;;;;;6.07;2.37;;;7.40;99.90;;;;;;5042917;28;20448;-58
2023/04/30 04:45:48;;;;;;;2.07;1.87;;;7.40;99.90;;;;;;5042132;28;20479;-58
2023/04/30 04:48:15;;;;;;;3.50;2.27;;;7.30;99.90;;;;;;5041067;28;20468;-58
2023/04/30 04:50:43;;;;;;;4.20;2.80;;;7.30;99.90;;;;;;5041525;28;20531;-54
2023/04/30 04:53:10;;;;;;;5.90;2.70;;;7.30;99.90;;;;;;5041357;28;20577;-59
2023/04/30 04:55:37;;;;;;;12.53;2.97;;;7.20;99.90;;;;;;5041338;28;20470;-57
2023/04/30 04:58:04;;;;;;;6.13;2.80;;;7.30;99.90;;;;;;5041379;28;20975;-59
2023/04/30 05:00:32;;;;;;;3.80;2.63;;;7.30;99.90;;;;;;5041260;28;20519;-58
2023/04/30 05:02:59;;;;;;;4.33;2.47;;;7.40;99.90;;;;;;5041457;28;20833;-58
2023/04/30 05:05:26;;;;;;;7.27;2.40;;;7.40;99.90;;;;;;5041567;28;20518;-58
2023/04/30 05:07:54;;;;;;;2.80;1.90;;;7.40;99.90;;;;;;5041274;28;20458;-58
2023/04/30 05:10:21;;;;;;;3.80;2.73;;;7.40;99.90;;;;;;5041566;28;20503;-57
2023/04/30 05:12:48;;;;;;;2.43;2.23;;;7.40;99.90;;;;;;5041569;28;20530;-58
2023/04/30 05:15:15;;;;;;;7.50;3.13;;;7.50;99.90;;;;;;5041384;28;20936;-57
2023/04/30 05:17:42;;;;;;;7.10;4.07;;;7.40;99.90;;;;;;5041077;28;20484;-58
2023/04/30 05:20:11;;;;;;;9.63;4.00;;;7.40;99.90;;;;;;5040895;28;20459;-58
2023/04/30 05:22:41;;;;;;;4.23;2.07;;;7.40;99.90;;;;;;5041075;28;20467;-55
2023/04/30 05:25:10;;;;;;;7.40;2.77;;;7.40;99.90;;;;;;5041522;28;20472;-54
2023/04/30 05:27:37;;;;;;;5.70;1.90;;;7.40;99.90;;;;;;5041320;28;20989;-58
2023/04/30 05:30:08;;;;;;;4.40;2.40;;;7.40;99.90;;;;;;5041081;28;20480;-57
2023/04/30 05:32:35;;;;;;;6.83;2.20;;;7.50;99.90;;;;;;5041178;28;20478;-58
2023/04/30 05:35:02;;;;;;;3.33;1.80;;;7.50;99.90;;;;;;5041277;28;20573;-59
2023/04/30 05:37:29;;;;;;;5.70;1.93;;;7.60;99.90;;;;;;5040936;28;20468;-58
2023/04/30 05:39:55;;;;;;;3.87;2.73;;;7.60;99.90;;;;;;5040972;28;20472;-55
2023/04/30 05:42:24;;;;;;;5.30;1.93;;;7.60;99.90;;;;;;5040524;28;20483;-59
2023/04/30 05:44:51;;;;;;;10.17;3.30;;;7.60;99.90;;;;;;5040443;28;20448;-56
2023/04/30 05:47:21;;;;;;;10.93;2.90;;;7.70;99.90;;;;;;5040498;28;20447;-55
2023/04/30 05:49:48;;;;;;;7.03;2.90;;;7.70;99.90;;;;;;5039804;28;20559;-56
2023/04/30 05:52:16;;;;;;;8.40;2.73;;;7.80;99.90;;;;;;5049471;28;20440;-53
2023/04/30 05:54:43;;;;;;;8.70;2.57;;;7.80;99.90;;;;;;5054811;28;20547;-58
2023/04/30 05:57:10;;;;;;;9.20;3.23;;;7.90;99.90;;;;;;5045550;28;20781;-58
2023/04/30 05:59:38;;;;;;;10.00;2.33;;;7.90;99.90;;;;;;5045550;28;20931;-58
2023/04/30 06:02:05;;;;;;;4.00;2.20;;;7.90;99.90;;;;;;5040523;28;20483;-57
2023/04/30 06:04:33;;;;;;;4.03;2.20;;;8.00;99.90;;;;;;5040412;28;20464;-58
2023/04/30 06:07:02;;;;;;;5.00;2.17;;;7.90;99.90;;;;;;5039866;28;20567;-58
2023/04/30 06:09:32;;;;;;;3.10;2.00;;;7.90;99.90;;;;;;5039536;28;20483;-54
2023/04/30 06:11:59;;;;;;;9.30;2.73;;;7.90;99.90;;;;;;5039915;28;20464;-57
2023/04/30 06:14:26;;;;;;;3.63;2.40;;;8.00;99.90;;;;;;5040412;28;20484;-59
2023/04/30 06:16:54;;;;;;;5.10;2.60;;;8.10;99.90;;;;;;5040154;28;20572;-59
2023/04/30 06:19:21;;;;;;;6.70;2.67;;;8.10;99.90;;;;;;5039800;28;20456;-58
2023/04/30 06:21:48;;;;;;;3.03;2.50;;;8.10;99.90;;;;;;5039769;28;20829;-59
2023/04/30 06:24:15;;;;;;;5.03;3.20;;;8.10;99.90;;;;;;5039445;28;20450;-54
2023/04/30 06:26:42;;;;;;;7.73;2.43;;;8.20;99.90;;;;;;5039847;28;20531;-57
2023/04/30 06:29:09;;;;;;;5.20;2.70;;;8.30;99.90;;;;;;5039463;28;20472;-55
2023/04/30 06:31:36;;;;;;;7.30;3.00;;;8.30;99.90;;;;;;5039668;28;20463;-58
2023/04/30 06:34:04;;;;;;;3.63;2.17;;;8.40;99.90;;;;;;5038764;28;20487;-58
2023/04/30 06:36:31;;;;;;;8.17;3.00;;;8.50;99.90;;;;;;5038881;28;20456;-58
2023/04/30 06:38:58;;;;;;;7.47;2.27;;;8.60;99.90;;;;;;5039032;28;20483;-57
2023/04/30 06:41:25;;;;;;;4.30;2.63;;;8.60;99.90;;;;;;5039671;28;20432;-56
2023/04/30 06:43:52;;;;;;;11.57;2.33;;;8.60;99.90;;;;;;5038711;28;20774;-58
2023/04/30 06:46:19;;;;;;;5.37;2.40;;;8.70;99.90;;;;;;5039288;28;20511;-54
2023/04/30 06:48:46;;;;;;;7.70;2.30;;;8.80;99.90;;;;;;5038881;28;20531;-57
2023/04/30 06:51:14;;;;;;;10.13;2.87;;;8.80;99.90;;;;;;5038473;28;20504;-58
2023/04/30 06:53:41;;;;;;;4.80;2.23;;;8.90;99.90;;;;;;5038645;28;20484;-59
2023/04/30 06:56:08;;;;;;;9.23;3.27;;;8.90;99.90;;;;;;5038624;28;20570;-56
2023/04/30 06:58:35;;;;;;;8.57;3.20;;;8.90;99.90;;;;;;5038550;28;20543;-58
2023/04/30 07:01:02;;;;;;;4.50;2.93;;;8.90;99.90;;;;;;5038324;28;20458;-58
2023/04/30 07:03:29;;;;;;;6.27;3.17;;;8.90;99.90;;;;;;5038964;28;20451;-56
2023/04/30 07:05:56;;;;;;;5.73;1.80;;;9.00;99.90;;;;;;5051567;28;20476;-58
2023/04/30 07:08:24;;;;;;;5.67;2.77;;;9.00;99.90;;;;;;5055887;28;20504;-58
2023/04/30 07:10:51;;;;;;;11.30;3.80;;;9.00;99.90;;;;;;5055983;28;20447;-54
2023/04/30 07:13:18;;;;;;;11.80;3.30;;;9.10;99.90;;;;;;5053455;28;20467;-56
2023/04/30 07:15:46;;;;;;;11.03;3.30;;;9.20;99.90;;;;;;5051922;28;20440;-57
2023/04/30 07:18:13;;;;;;;6.30;2.80;;;9.40;99.90;;;;;;5048511;28;20535;-57
2023/04/30 07:20:40;;;;;;;6.80;3.60;;;9.50;99.90;;;;;;5042699;28;20523;-57
2023/04/30 07:23:06;;;;;;;6.67;2.70;;;9.50;99.90;;;;;;5041668;28;20546;-56
2023/04/30 07:25:35;;;;;;;5.80;3.23;;;9.60;99.90;;;;;;5038937;28;20475;-58
2023/04/30 07:28:21;;;;;;;7.53;2.60;;;9.70;99.90;;;;;;5052891;28;20854;-57
2023/04/30 07:30:48;;;;;;;8.07;3.60;;;9.70;99.90;;;;;;5056340;28;20408;-55
2023/04/30 07:33:17;;;;;;;5.10;2.33;;;9.70;99.90;;;;;;5055838;28;20483;-56
2023/04/30 07:35:44;;;;;;;7.00;2.80;;;9.80;99.90;;;;;;5055616;28;20479;-55
2023/04/30 07:38:11;;;;;;;9.70;2.57;;;9.90;99.90;;;;;;5056037;28;20536;-57
2023/04/30 07:40:39;;;;;;;3.67;2.40;;;9.90;99.90;;;;;;5055350;28;20429;-56
2023/04/30 07:43:06;;;;;;;9.73;2.80;;;10.20;99.90;;;;;;5055447;28;20467;-53
2023/04/30 07:45:34;;;;;;;7.93;2.53;;;10.40;99.90;;;;;;5055159;28;20467;-54
2023/04/30 07:48:01;;;;;;;7.03;3.13;;;11.00;99.90;;;;;;5054735;28;20439;-56
2023/04/30 07:50:32;;;;;;;3.53;2.63;;;12.20;99.90;;;;;;5055724;28;20479;-54
2023/04/30 07:52:59;;;;;;;10.47;2.83;;;13.90;99.90;;;;;;5055181;28;20443;-56
2023/04/30 07:55:26;;;;;;;8.27;4.10;;;15.90;99.90;;;;;;5045274;28;20491;-57
2023/04/30 07:57:54;;;;;;;4.20;2.30;;;17.70;91.90;;;;;;5038858;28;20516;-58
2023/04/30 08:00:21;;;;;;;5.73;2.30;;;19.30;80.80;;;;;;5037463;28;20577;-57
2023/04/30 08:02:49;;;;;;;5.87;2.53;;;20.60;65.60;;;;;;5035628;28;20523;-58
2023/04/30 08:05:16;;;;;;;4.60;2.57;;;21.10;61.20;;;;;;5036731;28;20539;-58
2023/04/30 08:07:43;;;;;;;5.10;2.20;;;21.60;58.60;;;;;;5039913;28;20540;-55
2023/04/30 08:10:13;;;;;;;4.63;3.60;;;22.10;54.80;;;;;;5037299;28;20448;-55
2023/04/30 08:12:40;;;;;;;6.27;3.20;;;22.60;53.10;;;;;;5038329;28;20774;-54
2023/04/30 08:15:08;;;;;;;2.97;2.60;;;22.90;50.80;;;;;;5039137;28;20483;-54
2023/04/30 08:17:35;;;;;;;4.73;2.70;;;23.00;50.10;;;;;;5039019;28;20567;-55
2023/04/30 08:20:04;;;;;;;10.10;2.70;;;22.70;49.60;;;;;;5039136;28;20532;-57
2023/04/30 08:22:31;;;;;;;2.83;2.17;;;22.60;49.50;;;;;;5038791;28;20447;-56
2023/04/30 08:25:00;;;;;;;10.03;2.40;;;22.50;48.80;;;;;;5039077;28;20519;-57
2023/04/30 08:27:27;;;;;;;1.90;1.70;;;22.40;48.50;;;;;;5039472;28;20444;-56
2023/04/30 08:29:54;;;;;;;8.23;2.77;;;22.80;48.30;;;;;;5038824;28;20476;-57
2023/04/30 08:32:22;;;;;;;4.03;2.23;;;23.10;48.30;;;;;;5039031;28;20443;-57
2023/04/30 08:34:49;;;;;;;4.10;2.50;;;23.30;47.30;;;;;;5038568;28;20971;-59
2023/04/30 08:37:16;;;;;;;5.50;3.07;;;23.40;48.20;;;;;;5038610;28;20483;-57
2023/04/30 08:39:43;;;;;;;6.13;2.70;;;23.40;47.70;;;;;;5038271;28;20551;-57
2023/04/30 08:42:13;;;;;;;3.50;2.60;;;23.60;48.30;;;;;;5038567;28;20944;-58
2023/04/30 08:44:42;;;;;;;5.80;3.10;;;24.00;46.70;;;;;;5038491;28;20527;-56
2023/04/30 08:47:13;;;;;;;3.80;2.43;;;23.90;46.40;;;;;;5038325;28;20463;-57
2023/04/30 08:49:41;;;;;;;6.20;2.47;;;24.10;45.90;;;;;;5038368;28;20435;-58
2023/04/30 08:52:08;;;;;;;3.37;2.30;;;24.00;46.30;;;;;;5040830;28;20474;-58
2023/04/30 08:54:37;;;;;;;4.20;2.40;;;23.60;45.30;;;;;;5041989;28;20582;-57
2023/04/30 08:57:04;;;;;;;7.17;2.37;;;23.20;46.30;;;;;;5039486;28;20468;-57
2023/04/30 08:59:31;;;;;;;4.40;2.40;;;22.90;47.30;;;;;;5038682;28;20501;-56
2023/04/30 09:02:00;;;;;;;7.33;3.03;;;22.60;46.30;;;;;;5038446;28;20447;-58
2023/04/30 09:04:27;;;;;;;7.60;3.00;;;22.70;47.10;;;;;;5038726;28;20421;-57
2023/04/30 09:06:57;;;;;;;3.67;2.67;;;23.20;46.40;;;;;;5039836;28;20856;-57
2023/04/30 09:09:28;;;;;;;4.40;2.70;;;23.50;45.40;;;;;;5039199;28;20782;-58
2023/04/30 09:12:12;;;;;;;4.40;2.90;;;23.90;46.40;;;;;;5037927;28;20468;-57
2023/04/30 09:14:40;;;;;;;2.50;2.00;;;24.30;43.40;;;;;;5039149;28;20491;-58
2023/04/30 09:17:08;;;;;;;3.30;2.37;;;24.00;44.60;;;;;;5042017;28;20979;-57
2023/04/30 09:19:35;;;;;;;11.10;2.27;;;23.80;43.20;;;;;;5043150;28;20607;-57
2023/04/30 09:22:19;;;;;;;2.73;2.27;;;23.70;44.30;;;;;;5041659;28;20535;-58
2023/04/30 09:24:48;;;;;;;4.40;2.50;;;23.20;41.60;;;;;;5042504;28;20897;-56
2023/04/30 09:27:18;;;;;;;2.73;2.10;;;22.80;42.30;;;;;;5042306;28;20444;-55
2023/04/30 09:29:45;;;;;;;3.23;2.40;;;22.90;43.40;;;;;;5042971;28;20452;-54
2023/04/30 09:32:12;;;;;;;3.20;2.07;;;23.00;41.40;;;;;;5041904;28;20444;-53
2023/04/30 09:34:39;;;;;;;4.50;1.97;;;23.20;42.40;;;;;;5041933;28;20479;-57
2023/04/30 09:37:06;;;;;;;3.03;2.03;;;23.30;41.30;;;;;;5041701;28;20531;-58
2023/04/30 09:39:46;;;;;;;5.93;2.83;;;23.10;41.90;;;;;;5041807;28;20479;-58
2023/04/30 09:42:12;;;;;;;8.33;2.60;;;23.30;42.20;;;;;;5041485;28;20556;-56
2023/04/30 09:44:42;;;;;;;4.53;2.30;;;23.60;42.00;;;;;;5041308;28;20760;-56
2023/04/30 09:47:12;;;;;;;7.53;2.60;;;24.10;42.00;;;;;;5038935;28;20468;-57
2023/04/30 09:49:41;;;;;;;4.73;2.20;;;24.20;42.10;;;;;;5037096;28;20524;-57
2023/04/30 09:52:08;;;;;;;3.10;2.47;;;24.00;40.70;;;;;;5037000;28;20785;-56
2023/04/30 09:54:38;;;;;;;4.43;2.70;;;24.00;42.00;;;;;;5036605;28;20906;-56
2023/04/30 09:57:08;;;;;;;2.43;2.23;;;24.10;40.00;;;;;;5036965;28;20594;-56
2023/04/30 09:59:36;;;;;;;2.33;2.00;;;24.30;40.90;;;;;;5037251;28;20543;-57
2023/04/30 10:02:05;;;;;;;4.30;2.43;;;24.30;40.10;;;;;;5037048;28;20674;-56
2023/04/30 10:04:34;;;;;;;4.93;1.90;;;24.30;39.60;;;;;;5036682;28;20516;-56
2023/04/30 10:07:03;;;;;;;3.30;2.03;;;24.10;40.00;;;;;;5040130;28;20466;-57
2023/04/30 10:09:39;;;;;;;4.47;2.20;;;24.00;39.10;;;;;;5040022;28;20551;-55
2023/04/30 10:12:11;;;;;;;3.93;2.03;;;23.80;39.40;;;;;;5041266;28;20439;-56
2023/04/30 10:14:38;;;;;;;2.37;2.10;;;23.60;37.30;;;;;;5039919;28;20465;-56
2023/04/30 10:17:13;;;;;;;3.47;2.93;;;23.20;38.40;;;;;;5041673;28;20442;-56
2023/04/30 10:19:43;;;;;;;4.10;2.00;;;22.90;38.00;;;;;;5041007;28;20516;-55
2023/04/30 10:22:11;;;;;;;2.33;1.83;;;22.70;38.30;;;;;;5039753;28;20543;-57
2023/04/30 10:24:40;;;;;;;3.10;2.20;;;22.90;38.60;;;;;;5036475;28;20436;-58
2023/04/30 10:27:07;;;;;;;5.60;2.23;;;22.80;38.30;;;;;;5036823;28;20502;-57
2023/04/30 10:29:34;;;;;;;2.40;1.77;;;22.20;38.50;;;;;;5037246;28;20444;-57
2023/04/30 10:32:03;;;;;;;5.27;2.10;;;21.70;39.40;;;;;;5036824;28;20503;-58
2023/04/30 10:34:42;;;;;;;6.03;3.20;;;21.50;41.10;;;;;;5036283;28;20458;-58
2023/04/30 10:37:18;;;;;;;4.13;2.10;;;21.50;40.70;;;;;;5037405;28;20510;-57
2023/04/30 10:39:46;;;;;;;4.70;2.17;;;21.60;39.30;;;;;;5036781;28;20755;-56
2023/04/30 10:42:13;;;;;;;3.73;2.90;;;21.30;40.20;;;;;;5036690;28;20479;-58
2023/04/30 10:44:40;;;;;;;3.87;2.53;;;21.10;41.10;;;;;;5036744;28;20505;-56
2023/04/30 10:47:08;;;;;;;3.37;2.13;;;21.10;40.80;;;;;;5036568;28;20476;-56
2023/04/30 10:49:35;;;;;;;3.30;2.40;;;20.90;41.60;;;;;;5036822;28;20559;-57
2023/04/30 10:52:03;;;;;;;2.03;1.83;;;20.60;41.70;;;;;;5037012;28;20475;-58
2023/04/30 10:54:32;;;;;;;3.80;2.40;;;20.50;41.90;;;;;;5036611;28;20546;-56
2023/04/30 10:57:13;;;;;;;4.80;1.93;;;20.30;41.50;;;;;;5036267;28;20444;-57
2023/04/30 10:59:45;;;;;;;3.13;2.40;;;19.80;42.30;;;;;;5036902;28;20479;-58
2023/04/30 11:02:12;;;;;;;2.67;1.90;;;19.50;43.20;;;;;;5037283;28;20826;-58
2023/04/30 11:05:11;;;;;;;4.37;2.00;;;19.20;44.50;;;;;;5036810;28;20458;-57
2023/04/30 11:07:47;;;;;;;3.13;2.27;;;19.10;45.00;;;;;;5037203;28;20455;-55
2023/04/30 11:10:14;;;;;;;5.40;2.23;;;19.00;43.90;;;;;;5036747;28;20501;-57
2023/04/30 11:12:48;;;;;;;3.97;1.70;;;18.90;43.60;;;;;;5036585;28;20467;-54
2023/04/30 11:15:17;;;;;;;2.90;1.90;;;18.90;44.40;;;;;;5036595;28;20490;-57
2023/04/30 11:17:45;;;;;;;3.73;2.23;;;18.60;44.30;;;;;;5037139;28;20464;-54
2023/04/30 11:20:13;;;;;;;3.23;1.90;;;18.50;45.10;;;;;;5037278;28;20449;-56
2023/04/30 11:22:40;;;;;;;5.93;2.30;;;18.50;44.70;;;;;;5036533;28;20995;-54
2023/04/30 11:25:09;;;;;;;4.07;1.97;;;18.40;44.80;;;;;;5036911;28;20896;-53
2023/04/30 11:27:38;;;;;;;2.37;1.97;;;18.30;45.50;;;;;;5036579;28;20476;-55
2023/04/30 11:30:13;;;;;;;7.27;2.03;;;18.10;44.50;;;;;;5036837;28;20447;-56
2023/04/30 11:32:41;;;;;;;7.93;2.23;;;17.90;45.70;;;;;;5037179;28;20885;-58
2023/04/30 11:35:09;;;;;;;2.47;1.80;;;17.80;46.50;;;;;;5036729;28;20468;-57
2023/04/30 11:37:37;;;;;;;4.73;2.77;;;17.80;46.80;;;;;;5037147;28;20555;-58
2023/04/30 11:40:07;;;;;;;6.60;1.90;;;17.80;46.30;;;;;;5036279;28;20458;-58
2023/04/30 11:42:35;;;;;;;4.53;2.10;;;17.80;44.60;;;;;;5036931;28;20440;-58
2023/04/30 11:45:08;;;;;;;3.83;2.27;;;17.70;43.80;;;;;;5036856;28;20479;-57
2023/04/30 11:47:42;;;;;;;2.03;1.60;;;17.60;44.40;;;;;;5040700;28;20507;-57
2023/04/30 11:50:11;;;;;;;2.97;2.00;;;17.40;43.70;;;;;;5040449;28;20518;-57
2023/04/30 11:52:39;;;;;;;3.27;2.57;;;17.30;44.60;;;;;;5040887;28;20447;-56
2023/04/30 11:55:08;;;;;;;2.27;1.53;;;17.30;45.50;;;;;;5040180;28;20634;-57
2023/04/30 11:57:40;;;;;;;2.60;2.13;;;17.30;46.10;;;;;;5041002;28;20526;-56
2023/04/30 12:00:17;;;;;;;4.50;2.27;;;17.30;45.80;;;;;;5040699;28;20428;-55
2023/04/30 12:02:45;;;;;;;3.60;1.80;;;17.20;43.70;;;;;;5040651;28;20467;-57
2023/04/30 12:05:16;;;;;;;6.07;2.40;;;17.10;45.10;;;;;;5040152;28;20934;-58
2023/04/30 12:07:48;;;;;;;3.80;2.27;;;17.00;46.10;;;;;;5040902;28;20499;-59
2023/04/30 12:10:15;;;;;;;4.70;2.20;;;17.00;47.10;;;;;;5040276;28;20531;-56
2023/04/30 12:12:44;;;;;;;3.00;2.37;;;17.00;45.90;;;;;;5040106;28;20555;-57
2023/04/30 12:15:12;;;;;;;3.13;2.20;;;17.00;45.30;;;;;;5040301;28;20479;-56
2023/04/30 12:17:41;;;;;;;2.70;1.80;;;17.00;45.90;;;;;;5040126;28;20562;-58
2023/04/30 12:20:09;;;;;;;4.07;1.93;;;17.00;45.60;;;;;;5040101;28;20423;-55
2023/04/30 12:22:37;;;;;;;4.63;1.70;;;16.80;44.80;;;;;;5040402;28;20444;-55
2023/04/30 12:25:08;;;;;;;2.67;1.70;;;16.70;45.30;;;;;;5040218;28;20444;-57
2023/04/30 12:27:35;;;;;;;4.50;2.33;;;16.80;44.50;;;;;;5040208;28;20436;-57
2023/04/30 12:30:07;;;;;;;3.63;2.27;;;16.90;44.50;;;;;;5040337;28;20482;-57
2023/04/30 12:32:40;;;;;;;2.53;1.90;;;16.90;45.70;;;;;;5040157;28;20432;-58
2023/04/30 12:35:08;;;;;;;3.97;2.37;;;16.80;45.20;;;;;;5039790;28;20948;-58
2023/04/30 12:37:35;;;;;;;3.80;2.43;;;16.90;46.00;;;;;;5040098;28;20452;-58
2023/04/30 12:40:02;;;;;;;7.07;3.23;;;17.00;45.50;;;;;;5039990;28;20471;-54
2023/04/30 12:42:33;;;;;;;3.83;2.10;;;16.90;45.80;;;;;;5040007;28;20483;-56
2023/04/30 12:45:01;;;;;;;2.57;1.70;;;16.80;44.30;;;;;;5039884;28;20432;-56
2023/04/30 12:47:29;;;;;;;3.63;2.07;;;16.80;44.80;;;;;;5040141;28;20538;-58
2023/04/30 12:49:57;;;;;;;5.33;2.20;;;16.90;46.80;;;;;;5039776;28;20494;-57
2023/04/30 12:52:26;;;;;;;3.33;2.40;;;16.80;46.70;;;;;;5039838;28;20468;-57
2023/04/30 12:54:53;;;;;;;4.33;1.93;;;16.80;45.90;;;;;;5039842;28;20452;-54
2023/04/30 12:57:20;;;;;;;6.27;2.20;;;16.80;46.00;;;;;;5038674;28;21035;-56
2023/04/30 12:59:58;;;;;;;3.77;2.13;;;16.70;46.00;;;;;;5041731;28;20448;-58
2023/04/30 13:02:27;;;;;;;3.10;2.03;;;16.70;47.50;;;;;;5048479;28;20802;-55
2023/04/30 13:05:03;;;;;;;8.33;2.63;;;16.90;46.80;;;;;;5042887;28;20519;-57